| time (UTC) | temp C | wind direction | speed KPH | gust KPH | rain 1hr cm | rain 24hr cm | rain mn cm | humidity % | barometer mb |
| 20260507073043 | 13 | 197 | 0.0 | 0.0 | 0.00 | 0.00 | 0.00 | 31 | 1006.3 |
| 20260507071540 | 14 | 235 | 0.0 | 0.0 | 0.00 | 0.00 | 0.00 | 30 | 1006.2 |
| 20260507070043 | 14 | 101 | 0.0 | 0.0 | 0.00 | 0.00 | 0.00 | 30 | 1005.8 |
| 20260507064559 | 14 | 101 | 0.0 | 0.0 | 0.00 | 0.00 | 0.00 | 30 | 1006.0 |
| 20260507063036 | 14 | 160 | 0.0 | 0.0 | 0.00 | 0.00 | 0.00 | 30 | 1005.9 |
| 20260507061533 | 15 | 91 | 0.0 | 0.0 | 0.00 | 0.00 | 0.00 | 30 | 1005.7 |
| 20260507060028 | 15 | 91 | 0.0 | 0.0 | 0.00 | 0.00 | 0.00 | 30 | 1005.5 |
| 20260507054525 | 15 | 91 | 0.0 | 0.0 | 0.00 | 0.00 | 0.00 | 28 | 1005.3 |
| 20260507053023 | 16 | 91 | 0.0 | 0.0 | 0.00 | 0.00 | 0.00 | 27 | 1005.1 |
| 20260507051520 | 16 | 68 | 0.0 | 0.0 | 0.00 | 0.00 | 0.00 | 27 | 1004.9 |
| 20260507050033 | 16 | 107 | 0.0 | 0.0 | 0.00 | 0.00 | 0.00 | 27 | 1004.8 |
| 20260507044514 | 16 | 77 | 0.0 | 0.0 | 0.00 | 0.00 | 0.00 | 27 | 1004.6 |
| 20260507043010 | 17 | 79 | 0.0 | 4.8 | 0.00 | 0.00 | 0.00 | 26 | 1004.3 |
| 20260507041520 | 17 | 51 | 3.2 | 4.8 | 0.00 | 0.00 | 0.00 | 26 | 1004.1 |
| 20260507040002 | 17 | 53 | 3.2 | 6.4 | 0.00 | 0.00 | 0.00 | 26 | 1003.7 |
| 20260507034500 | 17 | 67 | 3.2 | 6.4 | 0.00 | 0.00 | 0.00 | 26 | 1003.5 |
| 20260507033058 | 17 | 44 | 4.8 | 8.0 | 0.00 | 0.00 | 0.00 | 26 | 1003.2 |
| 20260507031556 | 18 | 60 | 3.2 | 8.0 | 0.00 | 0.00 | 0.00 | 26 | 1002.8 |
| 20260507030050 | 18 | 61 | 4.8 | 9.7 | 0.00 | 0.00 | 0.00 | 25 | 1002.5 |
| 20260507024548 | 19 | 68 | 6.4 | 9.7 | 0.00 | 0.00 | 0.00 | 25 | 1002.1 |
| 20260507023045 | 20 | 37 | 8.0 | 14.5 | 0.00 | 0.00 | 0.00 | 24 | 1001.8 |
| 20260507021543 | 20 | 69 | 9.7 | 16.1 | 0.00 | 0.00 | 0.00 | 23 | 1001.7 |
| 20260507020036 | 21 | 60 | 12.9 | 19.3 | 0.00 | 0.00 | 0.00 | 23 | 1001.5 |
| 20260507014532 | 21 | 53 | 8.0 | 14.5 | 0.00 | 0.00 | 0.00 | 22 | 1001.3 |
| 20260507013028 | 22 | 69 | 11.3 | 17.7 | 0.00 | 0.00 | 0.00 | 22 | 1001.0 |
| 20260507011526 | 22 | 59 | 12.9 | 20.9 | 0.00 | 0.00 | 0.00 | 23 | 1000.9 |
| 20260507010026 | 22 | 56 | 11.3 | 20.9 | 0.00 | 0.00 | 0.00 | 23 | 1000.7 |
| 20260507004521 | 22 | 117 | 0.0 | 16.1 | 0.00 | 0.00 | 0.00 | 22 | 1000.5 |
| 20260507003021 | 22 | 61 | 6.4 | 14.5 | 0.00 | 0.00 | 0.00 | 23 | 1000.5 |
| 20260507001518 | 22 | 99 | 9.7 | 16.1 | 0.00 | 0.00 | 0.00 | 24 | 1000.3 |
| 20260507000120 | 22 | 44 | 11.3 | 20.9 | 0.00 | 0.00 | 0.00 | 24 | 1000.2 |
| 20260506234512 | 22 | 63 | 6.4 | 20.9 | 0.00 | 0.00 | 0.00 | 23 | 1000.2 |
| 20260506233013 | 22 | 57 | 14.5 | 20.9 | 0.00 | 0.00 | 0.00 | 23 | 1000.1 |
| 20260506231509 | 23 | 35 | 14.5 | 24.1 | 0.00 | 0.00 | 0.00 | 22 | 1000.2 |
| 20260506230018 | 23 | 70 | 9.7 | 19.3 | 0.00 | 0.00 | 0.00 | 22 | 1000.2 |
| 20260506224503 | 23 | 89 | 9.7 | 22.5 | 0.00 | 0.00 | 0.00 | 21 | 1000.1 |
| 20260506223002 | 22 | 345 | 6.4 | 22.5 | 0.00 | 0.00 | 0.00 | 20 | 1000.1 |
| 20260506221629 | 23 | 53 | 3.2 | 20.9 | 0.00 | 0.00 | 0.00 | 20 | 1000.1 |
| 20260506220132 | 23 | 59 | 4.8 | 20.9 | 0.00 | 0.00 | 0.00 | 20 | 1000.2 |
| 20260506214527 | 22 | 64 | 0.0 | 16.1 | 0.00 | 0.00 | 0.00 | 21 | 1000.1 |
| 20260506213027 | 22 | 65 | 6.4 | 17.7 | 0.00 | 0.00 | 0.00 | 21 | 1000.1 |
| 20260506211530 | 22 | 86 | 0.0 | 19.3 | 0.00 | 0.00 | 0.00 | 21 | 999.9 |
| 20260506210028 | 22 | 11 | 0.0 | 22.5 | 0.00 | 0.00 | 0.00 | 20 | 1000.0 |
| 20260506204523 | 22 | 69 | 8.0 | 20.9 | 0.00 | 0.00 | 0.00 | 21 | 999.8 |
| 20260506203023 | 22 | 359 | 8.0 | 20.9 | 0.00 | 0.00 | 0.00 | 21 | 999.7 |
| 20260506201529 | 22 | 15 | 4.8 | 20.9 | 0.00 | 0.00 | 0.00 | 22 | 999.6 |
| 20260506200019 | 22 | 290 | 14.5 | 29.0 | 0.00 | 0.00 | 0.00 | 22 | 999.5 |
| 20260506194517 | 22 | 332 | 9.7 | 24.1 | 0.00 | 0.00 | 0.00 | 23 | 999.7 |
| 20260506193023 | 21 | 319 | 12.9 | 25.7 | 0.00 | 0.00 | 0.00 | 24 | 1000.0 |
| 20260506191513 | 21 | 276 | 8.0 | 24.1 | 0.00 | 0.00 | 0.00 | 24 | 1000.0 |
| 20260506190021 | 21 | 319 | 9.7 | 22.5 | 0.00 | 0.00 | 0.00 | 25 | 1000.2 |
| 20260506184519 | 21 | 290 | 6.4 | 27.4 | 0.00 | 0.00 | 0.00 | 25 | 1000.5 |
| 20260506183010 | 21 | 334 | 3.2 | 17.7 | 0.00 | 0.00 | 0.00 | 25 | 1001.0 |
| 20260506181512 | 21 | 333 | 3.2 | 22.5 | 0.00 | 0.00 | 0.00 | 25 | 1001.1 |
| 20260506180018 | 20 | 330 | 8.0 | 24.1 | 0.00 | 0.00 | 0.00 | 27 | 1001.4 |
| 20260506174521 | 20 | 295 | 4.8 | 24.1 | 0.00 | 0.00 | 0.00 | 26 | 1001.4 |
| 20260506173007 | 20 | 72 | 8.0 | 19.3 | 0.00 | 0.00 | 0.00 | 28 | 1001.4 |
| 20260506171550 | 19 | 304 | 12.9 | 22.5 | 0.00 | 0.00 | 0.00 | 28 | 1001.4 |
| 20260506170041 | 18 | 325 | 9.7 | 19.3 | 0.00 | 0.00 | 0.00 | 30 | 1001.5 |
| 20260506164535 | 18 | 309 | 11.3 | 22.5 | 0.00 | 0.00 | 0.00 | 30 | 1001.4 |
| 20260506163036 | 18 | 295 | 8.0 | 19.3 | 0.00 | 0.00 | 0.00 | 30 | 1001.4 |
| 20260506161536 | 17 | 231 | 6.4 | 25.7 | 0.00 | 0.00 | 0.00 | 31 | 1001.4 |
| 20260506160035 | 17 | 301 | 9.7 | 20.9 | 0.00 | 0.00 | 0.00 | 31 | 1001.8 |
| 20260506154530 | 17 | 272 | 14.5 | 24.1 | 0.00 | 0.00 | 0.00 | 31 | 1001.8 |
| 20260506153029 | 16 | 265 | 9.7 | 24.1 | 0.00 | 0.00 | 0.00 | 31 | 1001.5 |
| 20260506151533 | 16 | 301 | 11.3 | 30.6 | 0.00 | 0.00 | 0.00 | 32 | 1001.5 |
| 20260506150028 | 16 | 284 | 12.9 | 25.7 | 0.00 | 0.00 | 0.00 | 31 | 1001.3 |
| 20260506144525 | 16 | 283 | 9.7 | 17.7 | 0.00 | 0.00 | 0.00 | 32 | 1001.3 |
| 20260506143026 | 15 | 302 | 3.2 | 8.0 | 0.00 | 0.00 | 0.00 | 32 | 1001.4 |
| 20260506141522 | 15 | 290 | 3.2 | 12.9 | 0.00 | 0.00 | 0.00 | 33 | 1001.6 |
| 20260506140027 | 15 | 276 | 6.4 | 16.1 | 0.00 | 0.00 | 0.00 | 33 | 1001.5 |
| 20260506134520 | 14 | 295 | 4.8 | 11.3 | 0.00 | 0.00 | 0.00 | 33 | 1001.3 |
| 20260506133020 | 14 | 302 | 6.4 | 12.9 | 0.00 | 0.00 | 0.00 | 34 | 1001.0 |
| 20260506131516 | 14 | 279 | 3.2 | 12.9 | 0.00 | 0.00 | 0.00 | 33 | 1000.9 |
| 20260506130012 | 13 | 245 | 0.0 | 9.7 | 0.00 | 0.00 | 0.00 | 34 | 1000.7 |
| 20260506124508 | 13 | 354 | 4.8 | 12.9 | 0.00 | 0.00 | 0.00 | 34 | 1000.4 |
| 20260506123007 | 13 | 26 | 6.4 | 14.5 | 0.00 | 0.00 | 0.00 | 34 | 1000.1 |
| 20260506121503 | 13 | 267 | 1.6 | 9.7 | 0.00 | 0.00 | 0.00 | 34 | 999.8 |
| 20260506120103 | 13 | 266 | 8.0 | 17.7 | 0.00 | 0.00 | 0.00 | 33 | 999.7 |
| 20260506114557 | 13 | 235 | 6.4 | 12.9 | 0.00 | 0.00 | 0.00 | 33 | 999.5 |
| 20260506113053 | 13 | 263 | 3.2 | 11.3 | 0.00 | 0.00 | 0.00 | 33 | 999.4 |
| 20260506111551 | 13 | 262 | 3.2 | 11.3 | 0.00 | 0.00 | 0.00 | 32 | 999.2 |
| 20260506110049 | 13 | 251 | 4.8 | 14.5 | 0.00 | 0.00 | 0.00 | 31 | 999.2 |
| 20260506104554 | 14 | 301 | 4.8 | 11.3 | 0.00 | 0.00 | 0.00 | 31 | 999.1 |
| 20260506103015 | 14 | 293 | 4.8 | 12.9 | 0.00 | 0.00 | 0.00 | 30 | 999.0 |
| 20260506101516 | 15 | 214 | 4.8 | 12.9 | 0.00 | 0.00 | 0.00 | 30 | 998.8 |
| 20260506100021 | 15 | 283 | 1.6 | 16.1 | 0.00 | 0.00 | 0.00 | 30 | 998.8 |
| 20260506094512 | 15 | 310 | 4.8 | 19.3 | 0.00 | 0.00 | 0.00 | 30 | 998.6 |
| 20260506094509 | 15 | 272 | 4.8 | 19.3 | 0.00 | 0.00 | 0.00 | 30 | 998.6 |
| 20260506093007 | 15 | 248 | 6.4 | 19.3 | 0.00 | 0.00 | 0.00 | 30 | 998.6 |
| 20260506091507 | 15 | 250 | 3.2 | 19.3 | 0.00 | 0.00 | 0.00 | 30 | 998.4 |
| 20260506090003 | 15 | 248 | 8.0 | 17.7 | 0.00 | 0.00 | 0.00 | 30 | 998.4 |
| 20260506084503 | 15 | 224 | 8.0 | 19.3 | 0.00 | 0.00 | 0.00 | 30 | 998.4 |
| 20260506083101 | 15 | 229 | 9.7 | 20.9 | 0.00 | 0.00 | 0.00 | 30 | 998.4 |
| 20260506081558 | 15 | 226 | 11.3 | 19.3 | 0.00 | 0.00 | 0.00 | 30 | 998.4 |